createdAt,value
2022-11-22T00:00:25.236Z,79.60
2022-11-22T00:02:52.360Z,79.38
2022-11-22T00:05:19.259Z,79.44
2022-11-22T00:07:46.107Z,79.42
2022-11-22T00:10:14.453Z,79.24
2022-11-22T00:12:41.754Z,79.08
2022-11-22T00:15:09.053Z,79.09
2022-11-22T00:17:36.209Z,78.98
2022-11-22T00:20:03.579Z,78.97
2022-11-22T00:22:31.403Z,79.10
2022-11-22T00:24:58.200Z,79.23
2022-11-22T00:27:25.055Z,79.42
2022-11-22T00:29:51.657Z,79.24
2022-11-22T00:32:18.419Z,79.28
2022-11-22T00:34:44.979Z,78.89
2022-11-22T00:37:11.543Z,79.10
2022-11-22T00:39:38.309Z,78.57
2022-11-22T00:42:04.895Z,78.65
2022-11-22T00:44:31.499Z,78.82
2022-11-22T00:46:58.158Z,78.48
2022-11-22T00:49:24.714Z,78.27
2022-11-22T00:51:51.444Z,78.31
2022-11-22T00:54:18.184Z,78.14
2022-11-22T00:56:44.819Z,78.21
2022-11-22T00:59:11.527Z,78.21
2022-11-22T01:01:38.237Z,78.34
2022-11-22T01:04:04.853Z,78.42
2022-11-22T01:06:31.431Z,78.35
2022-11-22T01:08:58.249Z,78.29
2022-11-22T01:11:24.860Z,78.46
2022-11-22T01:13:51.484Z,78.27
2022-11-22T01:16:18.324Z,78.39
2022-11-22T01:18:45.715Z,78.14
2022-11-22T01:21:12.589Z,78.32
2022-11-22T01:23:39.627Z,78.34
2022-11-22T01:26:09.569Z,78.04
2022-11-22T01:28:36.654Z,78.30
2022-11-22T01:31:03.394Z,78.02
2022-11-22T01:33:29.955Z,78.06
2022-11-22T01:35:58.144Z,77.65
2022-11-22T01:38:25.351Z,77.40
2022-11-22T01:40:53.141Z,77.00
2022-11-22T01:43:22.613Z,76.93
2022-11-22T01:45:52.348Z,77.04
2022-11-22T01:48:37.025Z,76.79
2022-11-22T01:51:28.437Z,76.50
2022-11-22T01:53:59.544Z,76.34
2022-11-22T01:56:29.127Z,76.26
2022-11-22T01:58:59.997Z,76.22
2022-11-22T02:01:28.342Z,76.22
2022-11-22T02:03:58.654Z,75.98
2022-11-22T02:06:34.299Z,76.09
2022-11-22T02:09:05.523Z,76.01
2022-11-22T02:11:34.409Z,76.27
2022-11-22T02:14:01.532Z,75.94
2022-11-22T02:16:28.606Z,76.11
2022-11-22T02:18:55.213Z,76.33
2022-11-22T02:21:21.749Z,76.19
2022-11-22T02:23:56.858Z,75.85
2022-11-22T02:26:29.070Z,76.06
2022-11-22T02:29:00.968Z,76.16
2022-11-22T02:31:42.781Z,76.24
2022-11-22T02:34:10.725Z,76.36
2022-11-22T02:36:47.749Z,76.29
2022-11-22T02:39:20.267Z,76.29
2022-11-22T02:41:48.045Z,76.57
2022-11-22T02:44:15.430Z,76.53
2022-11-22T02:46:54.502Z,76.79
2022-11-22T02:49:24.836Z,76.36
2022-11-22T02:51:52.888Z,76.17
2022-11-22T02:54:20.023Z,76.26
2022-11-22T02:56:46.907Z,76.08
2022-11-22T02:59:13.455Z,76.23
2022-11-22T03:01:40.371Z,76.17
2022-11-22T03:04:07.094Z,76.47
2022-11-22T03:06:33.687Z,75.94
2022-11-22T03:09:00.472Z,75.69
2022-11-22T03:11:27.110Z,75.65
2022-11-22T03:13:53.696Z,75.95
2022-11-22T03:16:20.283Z,75.54
2022-11-22T03:18:46.867Z,75.83
2022-11-22T03:21:13.434Z,75.55
2022-11-22T03:23:40.026Z,75.84
2022-11-22T03:26:09.101Z,75.65
2022-11-22T03:28:35.672Z,75.67
2022-11-22T03:31:06.304Z,75.63
2022-11-22T03:33:34.049Z,75.66
2022-11-22T03:36:00.651Z,75.56
2022-11-22T03:38:27.241Z,75.54
2022-11-22T03:40:53.812Z,75.82
2022-11-22T03:43:20.782Z,75.89
2022-11-22T03:45:47.723Z,75.97
2022-11-22T03:48:14.928Z,75.91
2022-11-22T03:50:41.481Z,75.81
2022-11-22T03:53:08.449Z,75.85
2022-11-22T03:55:35.104Z,75.96
2022-11-22T03:58:01.927Z,76.01
2022-11-22T04:00:28.465Z,75.90
2022-11-22T04:02:55.223Z,75.93
2022-11-22T04:05:22.052Z,76.15
2022-11-22T04:07:49.094Z,76.18
2022-11-22T04:10:19.329Z,76.09
2022-11-22T04:12:48.921Z,75.97
2022-11-22T04:15:15.554Z,76.13
2022-11-22T04:17:45.038Z,76.24
2022-11-22T04:20:29.989Z,75.96
2022-11-22T04:22:58.398Z,76.16
2022-11-22T04:25:29.956Z,76.22
2022-11-22T04:27:57.411Z,75.99
2022-11-22T04:30:43.584Z,75.96
2022-11-22T04:33:11.372Z,75.51
2022-11-22T04:35:38.748Z,75.66
2022-11-22T04:38:05.716Z,75.41
2022-11-22T04:40:33.268Z,75.10
2022-11-22T04:43:19.488Z,75.28
2022-11-22T04:45:46.570Z,75.07
2022-11-22T04:48:13.551Z,75.14
2022-11-22T04:51:00.351Z,75.24
2022-11-22T04:53:28.132Z,75.50
2022-11-22T04:55:55.062Z,75.07
2022-11-22T04:58:21.853Z,75.18
2022-11-22T05:00:49.237Z,75.04
2022-11-22T05:03:16.190Z,75.10
2022-11-22T05:05:44.397Z,74.99
2022-11-22T05:08:11.529Z,74.76
2022-11-22T05:10:56.724Z,75.06
2022-11-22T05:13:37.541Z,75.18
2022-11-22T05:16:06.457Z,74.92
2022-11-22T05:18:33.890Z,75.14
2022-11-22T05:21:13.741Z,75.42
2022-11-22T05:23:55.928Z,75.37
2022-11-22T05:26:24.854Z,75.36
2022-11-22T05:28:52.161Z,75.68
2022-11-22T05:31:24.453Z,75.60
2022-11-22T05:33:52.811Z,75.31
2022-11-22T05:36:19.942Z,75.32
2022-11-22T05:38:47.453Z,75.29
2022-11-22T05:41:15.679Z,75.73
2022-11-22T05:43:42.703Z,75.70
2022-11-22T05:46:13.463Z,75.54
2022-11-22T05:48:43.675Z,75.97
2022-11-22T05:51:13.546Z,76.16
2022-11-22T05:53:40.975Z,76.06
2022-11-22T05:56:12.582Z,75.96
2022-11-22T05:58:39.270Z,75.86
2022-11-22T06:01:11.965Z,76.08
2022-11-22T06:03:38.792Z,76.33
2022-11-22T06:06:07.051Z,76.86
2022-11-22T06:08:45.263Z,76.65
2022-11-22T06:11:19.205Z,76.72
2022-11-22T06:13:47.679Z,76.72
2022-11-22T06:16:15.161Z,76.72
2022-11-22T06:18:41.877Z,76.98
2022-11-22T06:21:12.424Z,77.11
2022-11-22T06:23:39.219Z,77.39
2022-11-22T06:26:08.961Z,77.01
2022-11-22T06:28:37.787Z,77.04
2022-11-22T06:31:10.850Z,76.82
2022-11-22T06:33:38.276Z,76.85
2022-11-22T06:36:18.948Z,76.98
2022-11-22T06:38:46.130Z,76.83
2022-11-22T06:41:21.143Z,77.31
2022-11-22T06:43:49.909Z,77.06
2022-11-22T06:46:18.436Z,77.02
2022-11-22T06:48:45.559Z,76.91
2022-11-22T06:51:13.575Z,76.94
2022-11-22T06:53:47.191Z,76.72
2022-11-22T06:56:19.401Z,76.73
2022-11-22T06:58:47.821Z,76.54
2022-11-22T07:01:19.822Z,76.44
2022-11-22T07:03:47.455Z,76.52
2022-11-22T07:06:16.216Z,76.29
2022-11-22T07:08:47.691Z,76.50
2022-11-22T07:11:20.584Z,76.51
2022-11-22T07:13:48.388Z,76.48
2022-11-22T07:16:18.337Z,76.43
2022-11-22T07:18:45.115Z,76.27
2022-11-22T07:21:22.273Z,76.30
2022-11-22T07:23:50.914Z,76.57
2022-11-22T07:26:19.417Z,76.28
2022-11-22T07:28:46.615Z,76.45
2022-11-22T07:31:14.958Z,76.73
2022-11-22T07:33:42.814Z,76.78
2022-11-22T07:36:21.180Z,76.90
2022-11-22T07:38:48.815Z,77.22
2022-11-22T07:41:16.750Z,77.31
2022-11-22T07:43:44.493Z,76.94
2022-11-22T07:46:20.156Z,77.61
2022-11-22T07:48:48.039Z,77.61
2022-11-22T07:51:14.652Z,77.23
2022-11-22T07:53:41.251Z,77.00
2022-11-22T07:56:08.245Z,76.61
2022-11-22T07:58:35.403Z,76.42
2022-11-22T08:01:14.207Z,76.57
2022-11-22T08:03:41.764Z,76.36
2022-11-22T08:06:10.919Z,76.57
2022-11-22T08:08:38.513Z,76.04
2022-11-22T08:11:06.540Z,76.39
2022-11-22T08:13:33.660Z,75.96
2022-11-22T08:16:18.767Z,75.93
2022-11-22T08:18:49.704Z,76.53
2022-11-22T08:21:18.465Z,76.17
2022-11-22T08:23:46.117Z,75.55
2022-11-22T08:26:15.418Z,74.94
2022-11-22T08:28:44.388Z,75.11
2022-11-22T08:31:14.092Z,74.72
2022-11-22T08:33:41.467Z,74.34
2022-11-22T08:36:08.735Z,74.45
2022-11-22T08:38:36.138Z,73.98
2022-11-22T08:41:04.227Z,73.90
2022-11-22T08:43:31.675Z,73.73
2022-11-22T08:45:59.466Z,73.62
2022-11-22T08:48:27.671Z,73.13
2022-11-22T08:50:58.734Z,72.75
2022-11-22T08:53:26.037Z,72.33
2022-11-22T08:55:53.600Z,72.34
2022-11-22T08:58:20.460Z,71.83
2022-11-22T09:00:47.165Z,71.50
2022-11-22T09:03:13.750Z,70.86
2022-11-22T09:08:28.956Z,70.76
2022-11-22T09:11:02.306Z,70.42
2022-11-22T09:13:29.681Z,70.35
2022-11-22T09:16:01.413Z,69.95
2022-11-22T09:18:28.298Z,69.66
2022-11-22T09:21:02.296Z,69.59
2022-11-22T09:23:29.433Z,69.32
2022-11-22T09:26:07.859Z,69.33
2022-11-22T09:28:35.417Z,69.42
2022-11-22T09:31:13.727Z,69.40
2022-11-22T09:33:41.980Z,69.31
2022-11-22T09:36:11.525Z,68.88
2022-11-22T09:38:38.814Z,68.57
2022-11-22T09:41:17.177Z,68.57
2022-11-22T09:43:59.082Z,68.74
2022-11-22T09:46:43.962Z,68.68
2022-11-22T09:49:20.707Z,68.78
2022-11-22T09:52:06.666Z,68.67
2022-11-22T09:54:56.820Z,68.92
2022-11-22T09:57:33.637Z,69.25
2022-11-22T10:00:27.778Z,69.75
2022-11-22T10:03:04.857Z,69.55
2022-11-22T10:05:42.646Z,69.71
2022-11-22T10:08:30.555Z,69.77
2022-11-22T10:11:00.084Z,69.80
2022-11-22T10:13:36.646Z,69.79
2022-11-22T10:16:20.749Z,69.96
2022-11-22T10:18:57.015Z,69.91
2022-11-22T10:21:23.641Z,69.99
2022-11-22T10:23:50.178Z,70.42
2022-11-22T10:26:26.963Z,70.34
2022-11-22T10:29:09.237Z,70.38
2022-11-22T10:31:47.200Z,70.41
2022-11-22T10:34:36.951Z,70.60
2022-11-22T10:37:07.557Z,70.67
2022-11-22T10:39:52.482Z,70.50
2022-11-22T10:42:33.892Z,70.64
2022-11-22T10:45:24.254Z,70.44
2022-11-22T10:48:28.079Z,70.35
2022-11-22T10:51:36.118Z,70.43
2022-11-22T10:54:18.977Z,70.53
2022-11-22T10:56:50.568Z,70.61
2022-11-22T10:59:23.174Z,70.50
2022-11-22T11:02:18.640Z,70.86
2022-11-22T11:04:47.261Z,70.94
2022-11-22T11:07:19.625Z,71.17
2022-11-22T11:12:53.260Z,71.57
2022-11-22T11:16:06.863Z,71.79
2022-11-22T11:18:43.447Z,71.93
2022-11-22T11:21:13.709Z,72.60
2022-11-22T11:23:41.317Z,72.48
2022-11-22T11:26:28.077Z,73.10
2022-11-22T11:29:19.386Z,73.16
2022-11-22T11:31:49.167Z,73.38
2022-11-22T11:34:28.218Z,73.78
2022-11-22T11:36:57.638Z,73.81
2022-11-22T11:39:32.835Z,73.55
2022-11-22T11:41:59.945Z,73.50
2022-11-22T11:44:33.147Z,74.20
2022-11-22T11:47:01.141Z,74.08
2022-11-22T11:49:30.625Z,74.54
2022-11-22T11:52:22.510Z,74.67
2022-11-22T11:54:58.826Z,74.91
2022-11-22T11:57:30.695Z,74.84
2022-11-22T12:00:00.197Z,74.31
2022-11-22T12:02:42.852Z,74.46
2022-11-22T12:05:12.666Z,74.28
2022-11-22T12:07:45.023Z,73.67
2022-11-22T12:10:39.485Z,73.59
2022-11-22T12:13:18.734Z,73.60
2022-11-22T12:15:58.734Z,73.28
2022-11-22T12:18:50.207Z,73.30
2022-11-22T12:21:27.145Z,73.46
2022-11-22T12:27:10.749Z,73.23
2022-11-22T12:29:46.690Z,73.40
2022-11-22T12:32:23.924Z,73.06
2022-11-22T12:35:05.567Z,72.97
2022-11-22T12:37:42.019Z,72.81
2022-11-22T12:40:26.666Z,72.92
2022-11-22T12:42:58.494Z,73.54
2022-11-22T12:45:30.246Z,73.64
2022-11-22T12:48:04.507Z,73.30
2022-11-22T12:51:03.210Z,73.49
2022-11-22T12:53:39.755Z,73.64
2022-11-22T12:56:12.416Z,74.36
2022-11-22T12:59:00.337Z,74.11
2022-11-22T13:01:49.430Z,73.97
2022-11-22T13:04:46.199Z,73.90
2022-11-22T13:07:29.606Z,74.10
2022-11-22T13:10:02.147Z,73.99
2022-11-22T13:12:33.562Z,73.99
2022-11-22T13:15:01.773Z,73.99
2022-11-22T13:17:34.484Z,74.03
2022-11-22T13:20:07.971Z,73.97
2022-11-22T13:23:02.072Z,74.03
2022-11-22T13:25:47.440Z,74.13
2022-11-22T13:28:22.389Z,74.18
2022-11-22T13:31:15.000Z,74.53
2022-11-22T13:34:02.891Z,74.55
2022-11-22T13:36:29.535Z,74.63
2022-11-22T13:38:59.093Z,74.56
2022-11-22T13:41:37.216Z,74.70
2022-11-22T13:44:22.286Z,74.83
2022-11-22T13:47:05.250Z,74.91
2022-11-22T13:49:53.888Z,74.79
2022-11-22T13:52:20.814Z,74.87
2022-11-22T13:54:48.381Z,75.03
2022-11-22T13:57:40.495Z,74.95
2022-11-22T14:00:09.919Z,75.28
2022-11-22T14:02:37.787Z,74.88
2022-11-22T14:05:17.287Z,74.60
2022-11-22T14:07:44.689Z,74.82
2022-11-22T14:10:56.372Z,74.68
2022-11-22T14:13:36.374Z,74.58
2022-11-22T14:16:11.948Z,74.66
2022-11-22T14:18:41.643Z,74.91
2022-11-22T14:21:14.588Z,74.99
2022-11-22T14:24:09.641Z,75.00
2022-11-22T14:27:00.774Z,75.30
2022-11-22T14:30:05.168Z,75.09
2022-11-22T14:32:53.039Z,75.45
2022-11-22T14:35:28.971Z,75.81
2022-11-22T14:38:01.177Z,75.97
2022-11-22T14:40:39.753Z,75.80
2022-11-22T14:43:18.738Z,76.03
2022-11-22T14:45:59.738Z,76.27
2022-11-22T14:48:32.300Z,76.20
2022-11-22T14:51:06.721Z,76.32
2022-11-22T14:53:40.333Z,76.35
2022-11-22T14:56:22.763Z,76.48
2022-11-22T14:59:15.309Z,76.80
2022-11-22T15:01:56.786Z,76.64
2022-11-22T15:09:10.959Z,76.79
2022-11-22T15:09:17.239Z,76.74
2022-11-22T15:11:02.270Z,76.29
2022-11-22T15:14:10.690Z,76.52
2022-11-22T15:59:44.508Z,74.94
2022-11-22T16:02:25.585Z,74.99
2022-11-22T16:06:09.702Z,74.83
2022-11-22T16:07:48.109Z,74.78
2022-11-22T16:10:39.048Z,74.62
2022-11-22T16:13:20.870Z,74.61
2022-11-22T16:16:12.761Z,74.76
2022-11-22T16:18:40.509Z,74.72
2022-11-22T16:21:10.717Z,74.55
2022-11-22T16:23:42.357Z,74.35
2022-11-22T16:26:25.736Z,74.49
2022-11-22T16:28:55.077Z,74.49
2022-11-22T16:31:32.588Z,74.52
2022-11-22T16:34:00.225Z,74.81
2022-11-22T16:36:31.603Z,74.57
2022-11-22T16:39:05.284Z,74.73
2022-11-22T16:41:42.291Z,74.74
2022-11-22T16:44:14.650Z,74.87
2022-11-22T16:46:41.362Z,74.89
2022-11-22T16:49:25.854Z,74.45
2022-11-22T16:51:52.729Z,74.73
2022-11-22T16:54:21.016Z,74.44
2022-11-22T16:56:48.118Z,74.57
2022-11-22T16:59:14.920Z,74.55
2022-11-22T17:01:42.818Z,74.58
2022-11-22T17:04:23.845Z,74.69
2022-11-22T17:06:51.503Z,74.42
2022-11-22T17:09:18.408Z,74.65
2022-11-22T17:11:45.524Z,74.84
2022-11-22T17:14:16.614Z,74.86
2022-11-22T17:16:48.383Z,75.15
2022-11-22T17:19:45.428Z,75.09
2022-11-22T17:22:06.765Z,75.20
2022-11-22T17:24:33.992Z,75.30
2022-11-22T17:27:00.679Z,75.20
2022-11-22T17:32:14.095Z,75.26
2022-11-22T17:34:40.775Z,75.53
2022-11-22T17:37:12.159Z,75.54
2022-11-22T17:39:39.094Z,75.38
2022-11-22T17:42:05.809Z,75.04
2022-11-22T17:44:32.538Z,75.10
2022-11-22T17:46:59.068Z,75.13
2022-11-22T17:49:26.064Z,75.05
2022-11-22T17:51:52.581Z,75.00
2022-11-22T17:54:19.282Z,74.99
2022-11-22T17:56:46.105Z,75.00
2022-11-22T17:59:12.691Z,75.13
2022-11-22T18:01:39.378Z,75.51
2022-11-22T18:04:05.987Z,75.34
2022-11-22T18:06:32.676Z,74.94
2022-11-22T18:09:00.331Z,75.08
2022-11-22T18:11:26.958Z,74.88
2022-11-22T18:13:53.941Z,74.60
2022-11-22T18:16:21.019Z,74.91
2022-11-22T18:19:02.827Z,74.85
2022-11-22T18:21:35.930Z,74.18
2022-11-22T18:24:02.901Z,73.73
2022-11-22T18:26:39.217Z,74.16
2022-11-22T18:31:54.810Z,73.68
2022-11-22T18:34:22.631Z,73.52
2022-11-22T18:37:02.065Z,73.47
2022-11-22T18:39:32.544Z,73.27
2022-11-22T18:41:59.557Z,72.99
2022-11-22T18:44:26.323Z,73.25
2022-11-22T18:46:53.016Z,73.07
2022-11-22T18:49:19.715Z,73.30
2022-11-22T18:51:46.277Z,73.73
2022-11-22T18:54:13.495Z,73.54
2022-11-22T18:56:40.878Z,74.29
2022-11-22T18:59:12.513Z,73.78
2022-11-22T19:01:39.565Z,73.25
2022-11-22T19:04:06.255Z,73.19
2022-11-22T19:06:32.892Z,73.55
2022-11-22T19:08:59.603Z,73.44
2022-11-22T19:11:28.468Z,73.70
2022-11-22T19:13:55.051Z,74.03
2022-11-22T19:16:22.656Z,73.86
2022-11-22T19:18:50.102Z,73.89
2022-11-22T19:21:21.395Z,73.92
2022-11-22T19:23:49.710Z,73.82
2022-11-22T19:26:21.471Z,73.86
2022-11-22T19:28:48.831Z,74.08
2022-11-22T19:31:22.282Z,74.25
2022-11-22T19:33:49.078Z,73.96
2022-11-22T19:36:21.007Z,74.00
2022-11-22T19:38:48.256Z,73.99
2022-11-22T20:00:00.656Z,75.37
2022-11-22T20:03:10.467Z,75.67
2022-11-22T20:06:15.718Z,76.45
2022-11-22T20:12:16.681Z,76.79
2022-11-22T20:14:48.178Z,76.62
2022-11-22T20:21:36.029Z,77.90
2022-11-22T20:24:41.813Z,77.16
2022-11-22T20:27:46.482Z,77.23
2022-11-22T20:31:07.051Z,77.80
2022-11-22T20:34:02.749Z,78.60
2022-11-22T20:36:51.004Z,78.41
2022-11-22T20:42:49.788Z,78.55
2022-11-22T20:45:53.796Z,79.30
2022-11-22T20:48:49.141Z,79.54
2022-11-22T20:51:59.326Z,79.76
2022-11-22T20:55:00.329Z,79.30
2022-11-22T21:01:40.245Z,79.83
2022-11-22T21:04:54.714Z,80.20
2022-11-22T21:07:45.265Z,80.26
2022-11-22T21:10:58.224Z,80.36
2022-11-22T21:14:12.490Z,80.54
2022-11-22T21:22:52.796Z,80.41
2022-11-22T21:25:35.176Z,80.53
2022-11-22T21:28:08.925Z,80.43
2022-11-22T21:30:39.917Z,81.09
2022-11-22T21:33:18.998Z,81.01
2022-11-22T21:35:52.261Z,80.63
2022-11-22T21:38:29.640Z,80.46
2022-11-22T21:44:37.501Z,80.51
2022-11-22T21:47:16.471Z,80.04
2022-11-22T21:49:59.561Z,79.98
2022-11-22T21:52:32.974Z,80.33
2022-11-22T21:55:18.339Z,80.55
2022-11-22T21:57:48.012Z,80.15
2022-11-22T22:00:16.403Z,80.03
2022-11-22T22:02:42.941Z,80.07
2022-11-22T22:05:09.728Z,79.81
2022-11-22T22:07:52.228Z,79.79
2022-11-22T22:10:19.773Z,79.71
2022-11-22T22:12:52.221Z,79.65
2022-11-22T22:15:22.719Z,79.76
2022-11-22T22:17:58.272Z,79.54
2022-11-22T22:20:29.107Z,79.30
2022-11-22T22:22:59.531Z,79.46
2022-11-22T22:25:32.747Z,79.20
2022-11-22T22:28:02.886Z,79.37
2022-11-22T22:30:38.056Z,79.51
2022-11-22T22:33:16.307Z,79.50
2022-11-22T22:35:46.198Z,79.59
2022-11-22T22:38:15.008Z,79.47
2022-11-22T22:40:42.412Z,79.40
2022-11-22T22:43:09.416Z,79.36
2022-11-22T22:45:36.539Z,79.30
2022-11-22T22:48:03.589Z,79.27
2022-11-22T22:50:30.725Z,79.27
2022-11-22T22:53:00.009Z,79.41
2022-11-22T22:55:29.979Z,79.42
2022-11-22T22:58:11.973Z,79.64
2022-11-22T23:00:48.963Z,79.80
2022-11-22T23:03:23.966Z,79.91
2022-11-22T23:05:58.603Z,79.80
2022-11-22T23:08:27.754Z,79.45
2022-11-22T23:10:57.060Z,79.43
2022-11-22T23:13:26.394Z,79.67
2022-11-22T23:15:58.595Z,79.52
2022-11-22T23:18:26.972Z,79.32
2022-11-22T23:21:02.862Z,79.41
2022-11-22T23:23:33.163Z,79.51
2022-11-22T23:26:12.682Z,79.82
2022-11-22T23:28:39.618Z,79.59
2022-11-22T23:31:16.277Z,80.04
2022-11-22T23:33:56.294Z,79.82
2022-11-22T23:36:27.343Z,80.19
2022-11-22T23:39:11.699Z,79.83
2022-11-22T23:41:40.005Z,79.88
2022-11-22T23:44:12.322Z,79.90
2022-11-22T23:46:39.624Z,79.80
2022-11-22T23:49:06.825Z,79.94
2022-11-22T23:51:35.717Z,79.94
2022-11-22T23:54:06.628Z,80.01
2022-11-22T23:56:34.889Z,80.08
2022-11-22T23:59:02.465Z,79.90
